sensor_id;sensor_type;location;lat;lon;timestamp;P1;durP1;ratioP1;P2;durP2;ratioP2
15553;SDS011;7878;44.632;10.942;2023-06-24T00:01:25;19.10;;;11.18;;
15553;SDS011;7878;44.632;10.942;2023-06-24T00:03:51;13.35;;;10.82;;
15553;SDS011;7878;44.632;10.942;2023-06-24T00:06:18;18.70;;;11.43;;
15553;SDS011;7878;44.632;10.942;2023-06-24T00:08:48;23.00;;;12.73;;
15553;SDS011;7878;44.632;10.942;2023-06-24T00:11:14;18.23;;;12.52;;
15553;SDS011;7878;44.632;10.942;2023-06-24T00:13:40;19.02;;;13.52;;
15553;SDS011;7878;44.632;10.942;2023-06-24T00:16:07;17.95;;;13.00;;
15553;SDS011;7878;44.632;10.942;2023-06-24T00:18:33;16.05;;;12.57;;
15553;SDS011;7878;44.632;10.942;2023-06-24T00:21:05;15.52;;;12.55;;
15553;SDS011;7878;44.632;10.942;2023-06-24T00:23:31;19.70;;;14.30;;
15553;SDS011;7878;44.632;10.942;2023-06-24T00:25:59;19.13;;;13.93;;
15553;SDS011;7878;44.632;10.942;2023-06-24T00:28:26;19.15;;;13.68;;
15553;SDS011;7878;44.632;10.942;2023-06-24T00:30:52;15.05;;;12.88;;
15553;SDS011;7878;44.632;10.942;2023-06-24T00:33:18;14.88;;;12.00;;
15553;SDS011;7878;44.632;10.942;2023-06-24T00:35:47;12.48;;;10.73;;
15553;SDS011;7878;44.632;10.942;2023-06-24T00:38:13;12.60;;;9.75;;
15553;SDS011;7878;44.632;10.942;2023-06-24T00:40:38;12.93;;;9.30;;
15553;SDS011;7878;44.632;10.942;2023-06-24T00:43:04;13.48;;;9.07;;
15553;SDS011;7878;44.632;10.942;2023-06-24T00:45:31;12.65;;;9.52;;
15553;SDS011;7878;44.632;10.942;2023-06-24T00:48:00;9.40;;;8.30;;
15553;SDS011;7878;44.632;10.942;2023-06-24T00:50:28;13.63;;;9.02;;
15553;SDS011;7878;44.632;10.942;2023-06-24T00:52:54;10.00;;;8.70;;
15553;SDS011;7878;44.632;10.942;2023-06-24T00:55:19;10.80;;;8.02;;
15553;SDS011;7878;44.632;10.942;2023-06-24T00:57:47;11.68;;;7.82;;
15553;SDS011;7878;44.632;10.942;2023-06-24T01:00:15;11.90;;;7.47;;
15553;SDS011;7878;44.632;10.942;2023-06-24T01:02:43;12.50;;;7.82;;
15553;SDS011;7878;44.632;10.942;2023-06-24T01:05:12;11.43;;;8.07;;
15553;SDS011;7878;44.632;10.942;2023-06-24T01:07:39;10.88;;;7.15;;
15553;SDS011;7878;44.632;10.942;2023-06-24T01:10:06;12.10;;;8.32;;
15553;SDS011;7878;44.632;10.942;2023-06-24T01:12:33;9.88;;;7.50;;
15553;SDS011;7878;44.632;10.942;2023-06-24T01:15:01;8.75;;;7.50;;
15553;SDS011;7878;44.632;10.942;2023-06-24T01:20:28;9.63;;;7.28;;
15553;SDS011;7878;44.632;10.942;2023-06-24T01:23:11;11.18;;;7.68;;
15553;SDS011;7878;44.632;10.942;2023-06-24T01:33:45;10.20;;;7.60;;
15553;SDS011;7878;44.632;10.942;2023-06-24T01:36:15;10.48;;;7.97;;
15553;SDS011;7878;44.632;10.942;2023-06-24T01:38:48;13.35;;;8.07;;
15553;SDS011;7878;44.632;10.942;2023-06-24T01:41:21;10.13;;;8.02;;
15553;SDS011;7878;44.632;10.942;2023-06-24T01:43:52;14.18;;;8.30;;
15553;SDS011;7878;44.632;10.942;2023-06-24T01:46:21;15.93;;;8.27;;
15553;SDS011;7878;44.632;10.942;2023-06-24T01:48:48;13.43;;;8.02;;
15553;SDS011;7878;44.632;10.942;2023-06-24T01:51:18;16.73;;;9.10;;
15553;SDS011;7878;44.632;10.942;2023-06-24T01:53:52;10.25;;;8.32;;
15553;SDS011;7878;44.632;10.942;2023-06-24T01:56:29;10.40;;;8.43;;
15553;SDS011;7878;44.632;10.942;2023-06-24T01:58:57;13.02;;;8.23;;
15553;SDS011;7878;44.632;10.942;2023-06-24T02:01:26;15.45;;;8.73;;
15553;SDS011;7878;44.632;10.942;2023-06-24T02:03:53;12.63;;;9.80;;
15553;SDS011;7878;44.632;10.942;2023-06-24T02:06:20;14.68;;;9.48;;
15553;SDS011;7878;44.632;10.942;2023-06-24T02:08:49;11.60;;;9.00;;
15553;SDS011;7878;44.632;10.942;2023-06-24T02:11:17;11.75;;;8.88;;
15553;SDS011;7878;44.632;10.942;2023-06-24T02:13:44;11.07;;;9.25;;
15553;SDS011;7878;44.632;10.942;2023-06-24T02:16:10;14.32;;;9.57;;
15553;SDS011;7878;44.632;10.942;2023-06-24T02:18:38;14.68;;;10.02;;
15553;SDS011;7878;44.632;10.942;2023-06-24T02:21:08;12.25;;;8.93;;
15553;SDS011;7878;44.632;10.942;2023-06-24T02:23:35;14.38;;;9.73;;
15553;SDS011;7878;44.632;10.942;2023-06-24T02:26:02;14.38;;;10.52;;
15553;SDS011;7878;44.632;10.942;2023-06-24T02:28:31;13.48;;;9.75;;
15553;SDS011;7878;44.632;10.942;2023-06-24T02:30:58;13.35;;;9.23;;
15553;SDS011;7878;44.632;10.942;2023-06-24T02:33:24;15.55;;;11.10;;
15553;SDS011;7878;44.632;10.942;2023-06-24T02:35:51;21.65;;;10.07;;
15553;SDS011;7878;44.632;10.942;2023-06-24T02:38:20;12.63;;;9.25;;
15553;SDS011;7878;44.632;10.942;2023-06-24T02:40:46;14.50;;;9.68;;
15553;SDS011;7878;44.632;10.942;2023-06-24T02:43:12;12.55;;;9.20;;
15553;SDS011;7878;44.632;10.942;2023-06-24T02:45:38;17.83;;;10.18;;
15553;SDS011;7878;44.632;10.942;2023-06-24T02:48:04;14.68;;;10.88;;
15553;SDS011;7878;44.632;10.942;2023-06-24T02:50:31;14.38;;;11.00;;
15553;SDS011;7878;44.632;10.942;2023-06-24T02:52:58;17.52;;;10.70;;
15553;SDS011;7878;44.632;10.942;2023-06-24T02:55:24;14.68;;;11.60;;
15553;SDS011;7878;44.632;10.942;2023-06-24T02:57:50;15.38;;;12.07;;
15553;SDS011;7878;44.632;10.942;2023-06-24T03:00:18;20.48;;;11.75;;
15553;SDS011;7878;44.632;10.942;2023-06-24T03:02:44;14.43;;;11.20;;
15553;SDS011;7878;44.632;10.942;2023-06-24T03:05:11;19.10;;;10.82;;
15553;SDS011;7878;44.632;10.942;2023-06-24T03:07:37;13.15;;;10.32;;
15553;SDS011;7878;44.632;10.942;2023-06-24T03:10:03;13.68;;;11.05;;
15553;SDS011;7878;44.632;10.942;2023-06-24T03:12:33;19.27;;;10.25;;
15553;SDS011;7878;44.632;10.942;2023-06-24T03:14:59;14.70;;;11.00;;
15553;SDS011;7878;44.632;10.942;2023-06-24T03:17:26;12.93;;;10.45;;
15553;SDS011;7878;44.632;10.942;2023-06-24T03:19:52;16.30;;;10.23;;
15553;SDS011;7878;44.632;10.942;2023-06-24T03:22:17;14.57;;;9.65;;
15553;SDS011;7878;44.632;10.942;2023-06-24T03:24:43;11.93;;;9.73;;
15553;SDS011;7878;44.632;10.942;2023-06-24T03:27:09;13.23;;;9.40;;
15553;SDS011;7878;44.632;10.942;2023-06-24T03:29:35;20.33;;;10.48;;
15553;SDS011;7878;44.632;10.942;2023-06-24T03:32:00;11.20;;;8.50;;
15553;SDS011;7878;44.632;10.942;2023-06-24T03:34:26;14.85;;;9.23;;
15553;SDS011;7878;44.632;10.942;2023-06-24T03:36:52;12.90;;;8.40;;
15553;SDS011;7878;44.632;10.942;2023-06-24T03:39:21;13.35;;;8.35;;
15553;SDS011;7878;44.632;10.942;2023-06-24T03:41:47;15.32;;;8.60;;
15553;SDS011;7878;44.632;10.942;2023-06-24T03:44:13;12.25;;;8.40;;
15553;SDS011;7878;44.632;10.942;2023-06-24T03:46:40;11.40;;;8.27;;
15553;SDS011;7878;44.632;10.942;2023-06-24T03:49:05;8.65;;;7.22;;
15553;SDS011;7878;44.632;10.942;2023-06-24T03:51:32;10.93;;;7.60;;
15553;SDS011;7878;44.632;10.942;2023-06-24T03:53:57;9.43;;;7.43;;
15553;SDS011;7878;44.632;10.942;2023-06-24T03:56:23;8.60;;;7.10;;
15553;SDS011;7878;44.632;10.942;2023-06-24T03:58:49;14.18;;;8.35;;
15553;SDS011;7878;44.632;10.942;2023-06-24T04:01:15;16.17;;;9.18;;
15553;SDS011;7878;44.632;10.942;2023-06-24T04:03:44;11.77;;;9.13;;
15553;SDS011;7878;44.632;10.942;2023-06-24T04:06:10;11.32;;;9.57;;
15553;SDS011;7878;44.632;10.942;2023-06-24T04:08:36;12.35;;;9.65;;
15553;SDS011;7878;44.632;10.942;2023-06-24T04:11:05;14.95;;;11.10;;
15553;SDS011;7878;44.632;10.942;2023-06-24T04:13:32;12.98;;;9.82;;
15553;SDS011;7878;44.632;10.942;2023-06-24T04:15:57;14.63;;;11.18;;
15553;SDS011;7878;44.632;10.942;2023-06-24T04:18:23;19.50;;;13.02;;
15553;SDS011;7878;44.632;10.942;2023-06-24T04:20:49;15.65;;;11.70;;
15553;SDS011;7878;44.632;10.942;2023-06-24T04:23:15;16.67;;;12.02;;
15553;SDS011;7878;44.632;10.942;2023-06-24T04:25:41;16.70;;;12.05;;
15553;SDS011;7878;44.632;10.942;2023-06-24T04:28:07;22.85;;;12.75;;
15553;SDS011;7878;44.632;10.942;2023-06-24T04:30:33;21.27;;;14.00;;
15553;SDS011;7878;44.632;10.942;2023-06-24T04:33:03;14.13;;;12.15;;
15553;SDS011;7878;44.632;10.942;2023-06-24T04:35:29;14.40;;;12.55;;
15553;SDS011;7878;44.632;10.942;2023-06-24T04:37:55;19.38;;;12.38;;
15553;SDS011;7878;44.632;10.942;2023-06-24T04:40:21;19.65;;;11.98;;
15553;SDS011;7878;44.632;10.942;2023-06-24T04:42:47;27.38;;;13.18;;
15553;SDS011;7878;44.632;10.942;2023-06-24T04:45:13;15.32;;;12.32;;
15553;SDS011;7878;44.632;10.942;2023-06-24T04:47:39;16.67;;;12.07;;
15553;SDS011;7878;44.632;10.942;2023-06-24T04:50:05;16.30;;;11.90;;
15553;SDS011;7878;44.632;10.942;2023-06-24T04:52:34;14.32;;;11.30;;
15553;SDS011;7878;44.632;10.942;2023-06-24T04:55:00;16.45;;;11.65;;
15553;SDS011;7878;44.632;10.942;2023-06-24T04:57:30;16.02;;;10.95;;
15553;SDS011;7878;44.632;10.942;2023-06-24T04:59:57;17.38;;;11.30;;
15553;SDS011;7878;44.632;10.942;2023-06-24T05:02:23;16.95;;;10.43;;
15553;SDS011;7878;44.632;10.942;2023-06-24T05:04:49;17.63;;;10.55;;
15553;SDS011;7878;44.632;10.942;2023-06-24T05:07:16;16.02;;;10.40;;
15553;SDS011;7878;44.632;10.942;2023-06-24T05:09:42;18.05;;;10.60;;
15553;SDS011;7878;44.632;10.942;2023-06-24T05:12:08;17.88;;;9.65;;
15553;SDS011;7878;44.632;10.942;2023-06-24T05:14:35;13.00;;;10.32;;
15553;SDS011;7878;44.632;10.942;2023-06-24T05:17:01;20.52;;;9.85;;
15553;SDS011;7878;44.632;10.942;2023-06-24T05:19:27;11.60;;;9.80;;
15553;SDS011;7878;44.632;10.942;2023-06-24T05:21:53;14.15;;;9.02;;
15553;SDS011;7878;44.632;10.942;2023-06-24T05:24:19;19.45;;;9.95;;
15553;SDS011;7878;44.632;10.942;2023-06-24T05:26:45;13.73;;;8.85;;
15553;SDS011;7878;44.632;10.942;2023-06-24T05:29:13;20.92;;;9.73;;
15553;SDS011;7878;44.632;10.942;2023-06-24T05:31:40;15.57;;;8.77;;
15553;SDS011;7878;44.632;10.942;2023-06-24T05:34:05;56.33;;;17.23;;
15553;SDS011;7878;44.632;10.942;2023-06-24T05:36:31;12.43;;;8.20;;
15553;SDS011;7878;44.632;10.942;2023-06-24T05:38:57;17.50;;;9.43;;
15553;SDS011;7878;44.632;10.942;2023-06-24T05:41:22;9.00;;;7.85;;
15553;SDS011;7878;44.632;10.942;2023-06-24T05:43:48;13.55;;;7.55;;
15553;SDS011;7878;44.632;10.942;2023-06-24T05:46:14;13.80;;;7.68;;
15553;SDS011;7878;44.632;10.942;2023-06-24T05:48:40;23.02;;;9.90;;
15553;SDS011;7878;44.632;10.942;2023-06-24T05:51:07;32.67;;;11.05;;
15553;SDS011;7878;44.632;10.942;2023-06-24T05:53:33;44.47;;;12.98;;
15553;SDS011;7878;44.632;10.942;2023-06-24T05:55:59;13.50;;;7.57;;
15553;SDS011;7878;44.632;10.942;2023-06-24T05:58:25;13.75;;;7.72;;
15553;SDS011;7878;44.632;10.942;2023-06-24T06:00:50;11.02;;;6.47;;
15553;SDS011;7878;44.632;10.942;2023-06-24T06:03:17;12.57;;;6.55;;
15553;SDS011;7878;44.632;10.942;2023-06-24T06:05:42;11.77;;;6.28;;
15553;SDS011;7878;44.632;10.942;2023-06-24T06:08:08;11.35;;;6.70;;
15553;SDS011;7878;44.632;10.942;2023-06-24T06:10:34;10.90;;;6.13;;
15553;SDS011;7878;44.632;10.942;2023-06-24T06:12:59;14.50;;;6.40;;
15553;SDS011;7878;44.632;10.942;2023-06-24T06:15:25;8.27;;;5.95;;
15553;SDS011;7878;44.632;10.942;2023-06-24T06:17:51;9.25;;;6.20;;
15553;SDS011;7878;44.632;10.942;2023-06-24T06:20:17;9.60;;;6.18;;
15553;SDS011;7878;44.632;10.942;2023-06-24T06:22:43;9.77;;;4.93;;
15553;SDS011;7878;44.632;10.942;2023-06-24T06:25:08;13.18;;;5.88;;
15553;SDS011;7878;44.632;10.942;2023-06-24T06:27:34;12.63;;;6.57;;
15553;SDS011;7878;44.632;10.942;2023-06-24T06:30:00;10.18;;;5.55;;
15553;SDS011;7878;44.632;10.942;2023-06-24T06:32:25;11.38;;;6.15;;
15553;SDS011;7878;44.632;10.942;2023-06-24T06:34:51;15.93;;;5.53;;
15553;SDS011;7878;44.632;10.942;2023-06-24T06:37:17;14.43;;;7.13;;
15553;SDS011;7878;44.632;10.942;2023-06-24T06:39:42;11.10;;;6.80;;
15553;SDS011;7878;44.632;10.942;2023-06-24T06:42:08;12.13;;;5.70;;
15553;SDS011;7878;44.632;10.942;2023-06-24T06:44:34;10.55;;;5.93;;
15553;SDS011;7878;44.632;10.942;2023-06-24T06:46:59;10.48;;;5.00;;
15553;SDS011;7878;44.632;10.942;2023-06-24T06:49:25;13.13;;;6.05;;
15553;SDS011;7878;44.632;10.942;2023-06-24T06:51:53;10.27;;;5.40;;
15553;SDS011;7878;44.632;10.942;2023-06-24T06:54:19;6.90;;;4.63;;
15553;SDS011;7878;44.632;10.942;2023-06-24T06:56:45;7.68;;;5.53;;
15553;SDS011;7878;44.632;10.942;2023-06-24T06:59:10;7.50;;;5.38;;
15553;SDS011;7878;44.632;10.942;2023-06-24T07:01:36;7.10;;;5.25;;
15553;SDS011;7878;44.632;10.942;2023-06-24T07:04:02;11.50;;;6.28;;
15553;SDS011;7878;44.632;10.942;2023-06-24T07:06:28;6.10;;;5.45;;
15553;SDS011;7878;44.632;10.942;2023-06-24T07:08:54;11.70;;;6.00;;
15553;SDS011;7878;44.632;10.942;2023-06-24T07:11:19;9.95;;;5.82;;
15553;SDS011;7878;44.632;10.942;2023-06-24T07:13:45;7.72;;;5.25;;
15553;SDS011;7878;44.632;10.942;2023-06-24T07:16:11;7.95;;;5.50;;
15553;SDS011;7878;44.632;10.942;2023-06-24T07:18:36;6.13;;;5.32;;
15553;SDS011;7878;44.632;10.942;2023-06-24T07:21:02;5.68;;;4.70;;
15553;SDS011;7878;44.632;10.942;2023-06-24T07:23:28;9.50;;;5.07;;
15553;SDS011;7878;44.632;10.942;2023-06-24T07:25:54;10.88;;;5.05;;
15553;SDS011;7878;44.632;10.942;2023-06-24T07:28:20;8.25;;;4.55;;
15553;SDS011;7878;44.632;10.942;2023-06-24T07:30:45;8.68;;;5.53;;
15553;SDS011;7878;44.632;10.942;2023-06-24T07:33:11;5.65;;;5.00;;
15553;SDS011;7878;44.632;10.942;2023-06-24T07:35:36;10.88;;;5.47;;
15553;SDS011;7878;44.632;10.942;2023-06-24T07:38:02;7.20;;;4.95;;
15553;SDS011;7878;44.632;10.942;2023-06-24T07:40:28;7.65;;;5.45;;
15553;SDS011;7878;44.632;10.942;2023-06-24T07:42:53;7.25;;;4.40;;
15553;SDS011;7878;44.632;10.942;2023-06-24T07:45:19;7.15;;;4.32;;
15553;SDS011;7878;44.632;10.942;2023-06-24T07:47:45;9.20;;;5.70;;
15553;SDS011;7878;44.632;10.942;2023-06-24T07:50:11;6.30;;;5.20;;
15553;SDS011;7878;44.632;10.942;2023-06-24T07:52:37;6.90;;;4.97;;
15553;SDS011;7878;44.632;10.942;2023-06-24T07:55:03;11.35;;;5.00;;
15553;SDS011;7878;44.632;10.942;2023-06-24T07:57:29;8.80;;;4.88;;
15553;SDS011;7878;44.632;10.942;2023-06-24T07:59:55;11.93;;;5.40;;
15553;SDS011;7878;44.632;10.942;2023-06-24T08:02:21;10.02;;;5.35;;
15553;SDS011;7878;44.632;10.942;2023-06-24T08:04:49;7.80;;;5.15;;
15553;SDS011;7878;44.632;10.942;2023-06-24T08:07:14;8.20;;;4.70;;
15553;SDS011;7878;44.632;10.942;2023-06-24T08:09:40;6.05;;;4.50;;
15553;SDS011;7878;44.632;10.942;2023-06-24T08:12:06;5.93;;;4.40;;
15553;SDS011;7878;44.632;10.942;2023-06-24T08:14:32;10.38;;;5.43;;
15553;SDS011;7878;44.632;10.942;2023-06-24T08:16:58;7.68;;;5.15;;
15553;SDS011;7878;44.632;10.942;2023-06-24T08:19:23;10.75;;;4.97;;
15553;SDS011;7878;44.632;10.942;2023-06-24T08:21:49;6.47;;;4.85;;
15553;SDS011;7878;44.632;10.942;2023-06-24T08:24:15;7.68;;;5.10;;
15553;SDS011;7878;44.632;10.942;2023-06-24T08:26:40;6.00;;;4.20;;
15553;SDS011;7878;44.632;10.942;2023-06-24T08:29:06;7.05;;;4.18;;
15553;SDS011;7878;44.632;10.942;2023-06-24T08:31:32;9.85;;;4.68;;
15553;SDS011;7878;44.632;10.942;2023-06-24T08:34:01;7.55;;;5.38;;
15553;SDS011;7878;44.632;10.942;2023-06-24T08:36:32;6.45;;;4.43;;
15553;SDS011;7878;44.632;10.942;2023-06-24T08:38:58;4.35;;;3.60;;
15553;SDS011;7878;44.632;10.942;2023-06-24T08:41:24;6.97;;;3.83;;
15553;SDS011;7878;44.632;10.942;2023-06-24T08:43:50;5.22;;;3.70;;
15553;SDS011;7878;44.632;10.942;2023-06-24T08:46:16;5.18;;;3.70;;
15553;SDS011;7878;44.632;10.942;2023-06-24T08:48:45;7.00;;;4.07;;
15553;SDS011;7878;44.632;10.942;2023-06-24T08:51:13;4.63;;;3.50;;
15553;SDS011;7878;44.632;10.942;2023-06-24T08:53:43;4.65;;;3.78;;
15553;SDS011;7878;44.632;10.942;2023-06-24T08:56:09;7.05;;;3.97;;
15553;SDS011;7878;44.632;10.942;2023-06-24T08:58:36;6.82;;;4.28;;
15553;SDS011;7878;44.632;10.942;2023-06-24T09:01:02;10.07;;;4.38;;
15553;SDS011;7878;44.632;10.942;2023-06-24T09:03:28;5.40;;;4.03;;
15553;SDS011;7878;44.632;10.942;2023-06-24T09:05:54;11.50;;;4.22;;
15553;SDS011;7878;44.632;10.942;2023-06-24T09:08:19;8.88;;;4.43;;
15553;SDS011;7878;44.632;10.942;2023-06-24T09:10:47;13.57;;;4.60;;
15553;SDS011;7878;44.632;10.942;2023-06-24T09:13:19;6.85;;;4.32;;
15553;SDS011;7878;44.632;10.942;2023-06-24T09:15:45;7.38;;;4.07;;
15553;SDS011;7878;44.632;10.942;2023-06-24T09:18:11;5.72;;;4.30;;
15553;SDS011;7878;44.632;10.942;2023-06-24T09:20:37;6.20;;;4.38;;
15553;SDS011;7878;44.632;10.942;2023-06-24T09:23:09;6.60;;;4.85;;
15553;SDS011;7878;44.632;10.942;2023-06-24T09:25:35;6.53;;;4.03;;
15553;SDS011;7878;44.632;10.942;2023-06-24T09:28:01;7.45;;;4.78;;
15553;SDS011;7878;44.632;10.942;2023-06-24T09:30:28;5.03;;;4.10;;
15553;SDS011;7878;44.632;10.942;2023-06-24T09:32:54;6.38;;;4.60;;
15553;SDS011;7878;44.632;10.942;2023-06-24T09:35:23;6.07;;;4.10;;
15553;SDS011;7878;44.632;10.942;2023-06-24T09:37:53;6.40;;;4.90;;
15553;SDS011;7878;44.632;10.942;2023-06-24T09:40:20;7.20;;;4.60;;
15553;SDS011;7878;44.632;10.942;2023-06-24T09:42:53;5.07;;;4.05;;
15553;SDS011;7878;44.632;10.942;2023-06-24T09:45:26;6.50;;;4.85;;
15553;SDS011;7878;44.632;10.942;2023-06-24T09:47:53;7.68;;;4.97;;
15553;SDS011;7878;44.632;10.942;2023-06-24T09:50:20;5.50;;;4.10;;
15553;SDS011;7878;44.632;10.942;2023-06-24T09:52:46;6.57;;;3.85;;
15553;SDS011;7878;44.632;10.942;2023-06-24T09:55:14;7.85;;;4.00;;
15553;SDS011;7878;44.632;10.942;2023-06-24T09:57:42;7.07;;;4.28;;
15553;SDS011;7878;44.632;10.942;2023-06-24T10:00:13;6.30;;;4.30;;
15553;SDS011;7878;44.632;10.942;2023-06-24T10:02:41;8.98;;;4.20;;
15553;SDS011;7878;44.632;10.942;2023-06-24T10:05:08;6.47;;;3.65;;
15553;SDS011;7878;44.632;10.942;2023-06-24T10:07:34;7.53;;;3.45;;
15553;SDS011;7878;44.632;10.942;2023-06-24T10:10:04;11.02;;;3.97;;
15553;SDS011;7878;44.632;10.942;2023-06-24T10:12:30;7.82;;;4.30;;
15553;SDS011;7878;44.632;10.942;2023-06-24T10:14:57;4.40;;;4.00;;
15553;SDS011;7878;44.632;10.942;2023-06-24T10:17:24;5.35;;;3.95;;
15553;SDS011;7878;44.632;10.942;2023-06-24T10:19:51;4.88;;;4.35;;
15553;SDS011;7878;44.632;10.942;2023-06-24T10:22:18;6.65;;;4.32;;
15553;SDS011;7878;44.632;10.942;2023-06-24T10:24:51;7.43;;;4.20;;
15553;SDS011;7878;44.632;10.942;2023-06-24T10:27:18;4.63;;;4.10;;
15553;SDS011;7878;44.632;10.942;2023-06-24T10:29:52;6.43;;;4.20;;
15553;SDS011;7878;44.632;10.942;2023-06-24T10:32:21;4.53;;;3.92;;
15553;SDS011;7878;44.632;10.942;2023-06-24T10:34:53;7.22;;;4.03;;
15553;SDS011;7878;44.632;10.942;2023-06-24T10:37:22;10.15;;;4.55;;
15553;SDS011;7878;44.632;10.942;2023-06-24T10:47:44;9.32;;;4.57;;
15553;SDS011;7878;44.632;10.942;2023-06-24T10:50:13;5.15;;;4.40;;
15553;SDS011;7878;44.632;10.942;2023-06-24T10:52:41;4.70;;;4.30;;
15553;SDS011;7878;44.632;10.942;2023-06-24T10:55:08;4.55;;;4.18;;
15553;SDS011;7878;44.632;10.942;2023-06-24T10:57:34;4.72;;;4.20;;
15553;SDS011;7878;44.632;10.942;2023-06-24T11:00:00;6.45;;;4.00;;
15553;SDS011;7878;44.632;10.942;2023-06-24T11:02:28;6.47;;;4.45;;
15553;SDS011;7878;44.632;10.942;2023-06-24T11:04:56;6.85;;;4.32;;
15553;SDS011;7878;44.632;10.942;2023-06-24T11:07:24;5.10;;;4.25;;
15553;SDS011;7878;44.632;10.942;2023-06-24T11:09:51;4.70;;;4.30;;
15553;SDS011;7878;44.632;10.942;2023-06-24T11:12:25;5.72;;;3.92;;
15553;SDS011;7878;44.632;10.942;2023-06-24T11:14:55;4.18;;;3.78;;
15553;SDS011;7878;44.632;10.942;2023-06-24T11:17:22;7.10;;;3.53;;
15553;SDS011;7878;44.632;10.942;2023-06-24T11:19:48;3.65;;;3.35;;
15553;SDS011;7878;44.632;10.942;2023-06-24T11:22:15;5.32;;;4.25;;
15553;SDS011;7878;44.632;10.942;2023-06-24T11:24:41;6.72;;;3.90;;
15553;SDS011;7878;44.632;10.942;2023-06-24T11:27:06;4.63;;;4.22;;
15553;SDS011;7878;44.632;10.942;2023-06-24T11:29:33;6.72;;;3.90;;
15553;SDS011;7878;44.632;10.942;2023-06-24T11:32:00;4.32;;;3.70;;
15553;SDS011;7878;44.632;10.942;2023-06-24T11:34:27;7.05;;;3.80;;
15553;SDS011;7878;44.632;10.942;2023-06-24T11:36:53;3.78;;;3.47;;
15553;SDS011;7878;44.632;10.942;2023-06-24T11:39:22;5.57;;;3.80;;
15553;SDS011;7878;44.632;10.942;2023-06-24T11:41:52;4.30;;;4.00;;
15553;SDS011;7878;44.632;10.942;2023-06-24T11:44:18;5.28;;;3.40;;
15553;SDS011;7878;44.632;10.942;2023-06-24T11:46:45;5.68;;;3.40;;
15553;SDS011;7878;44.632;10.942;2023-06-24T11:49:12;7.85;;;3.20;;
15553;SDS011;7878;44.632;10.942;2023-06-24T11:51:45;4.47;;;3.35;;
15553;SDS011;7878;44.632;10.942;2023-06-24T11:54:18;3.38;;;3.08;;
15553;SDS011;7878;44.632;10.942;2023-06-24T11:56:49;3.95;;;3.33;;
15553;SDS011;7878;44.632;10.942;2023-06-24T11:59:20;3.13;;;2.83;;
15553;SDS011;7878;44.632;10.942;2023-06-24T12:01:54;5.80;;;3.40;;
15553;SDS011;7878;44.632;10.942;2023-06-24T12:04:21;3.35;;;3.05;;
15553;SDS011;7878;44.632;10.942;2023-06-24T12:06:52;7.28;;;3.28;;
15553;SDS011;7878;44.632;10.942;2023-06-24T12:09:18;3.83;;;3.33;;
15553;SDS011;7878;44.632;10.942;2023-06-24T12:11:44;6.93;;;3.45;;
15553;SDS011;7878;44.632;10.942;2023-06-24T12:14:10;6.30;;;3.08;;
15553;SDS011;7878;44.632;10.942;2023-06-24T12:16:36;3.50;;;3.20;;
15553;SDS011;7878;44.632;10.942;2023-06-24T12:19:02;3.92;;;3.40;;
15553;SDS011;7878;44.632;10.942;2023-06-24T12:21:27;4.22;;;3.30;;
15553;SDS011;7878;44.632;10.942;2023-06-24T12:23:53;2.97;;;2.67;;
15553;SDS011;7878;44.632;10.942;2023-06-24T12:26:19;3.75;;;3.30;;
15553;SDS011;7878;44.632;10.942;2023-06-24T12:28:44;4.50;;;3.15;;
15553;SDS011;7878;44.632;10.942;2023-06-24T12:31:10;3.70;;;3.20;;
15553;SDS011;7878;44.632;10.942;2023-06-24T12:33:36;6.10;;;3.28;;
15553;SDS011;7878;44.632;10.942;2023-06-24T12:36:02;7.47;;;3.33;;
15553;SDS011;7878;44.632;10.942;2023-06-24T12:38:28;5.55;;;3.30;;
15553;SDS011;7878;44.632;10.942;2023-06-24T12:40:53;4.47;;;3.47;;
15553;SDS011;7878;44.632;10.942;2023-06-24T12:43:19;5.28;;;3.80;;
15553;SDS011;7878;44.632;10.942;2023-06-24T12:45:45;5.80;;;3.33;;
15553;SDS011;7878;44.632;10.942;2023-06-24T12:48:11;8.70;;;3.38;;
15553;SDS011;7878;44.632;10.942;2023-06-24T12:50:37;3.33;;;3.10;;
15553;SDS011;7878;44.632;10.942;2023-06-24T12:53:03;4.22;;;3.28;;
15553;SDS011;7878;44.632;10.942;2023-06-24T12:55:29;4.30;;;3.33;;
15553;SDS011;7878;44.632;10.942;2023-06-24T12:57:55;4.47;;;3.30;;
15553;SDS011;7878;44.632;10.942;2023-06-24T13:00:21;10.93;;;3.60;;
15553;SDS011;7878;44.632;10.942;2023-06-24T13:02:48;3.25;;;2.95;;
15553;SDS011;7878;44.632;10.942;2023-06-24T13:05:15;3.35;;;3.05;;
15553;SDS011;7878;44.632;10.942;2023-06-24T13:07:41;3.22;;;2.92;;
15553;SDS011;7878;44.632;10.942;2023-06-24T13:10:07;4.07;;;3.10;;
15553;SDS011;7878;44.632;10.942;2023-06-24T13:12:34;3.80;;;3.40;;
15553;SDS011;7878;44.632;10.942;2023-06-24T13:15:00;3.38;;;3.08;;
15553;SDS011;7878;44.632;10.942;2023-06-24T13:17:26;3.75;;;3.08;;
15553;SDS011;7878;44.632;10.942;2023-06-24T13:19:52;4.15;;;2.90;;
15553;SDS011;7878;44.632;10.942;2023-06-24T13:22:18;3.03;;;2.72;;
15553;SDS011;7878;44.632;10.942;2023-06-24T13:24:44;5.35;;;3.00;;
15553;SDS011;7878;44.632;10.942;2023-06-24T13:27:10;5.57;;;3.17;;
15553;SDS011;7878;44.632;10.942;2023-06-24T13:29:36;3.67;;;3.03;;
15553;SDS011;7878;44.632;10.942;2023-06-24T13:32:02;4.10;;;2.83;;
15553;SDS011;7878;44.632;10.942;2023-06-24T13:34:27;2.97;;;2.78;;
15553;SDS011;7878;44.632;10.942;2023-06-24T13:36:53;3.65;;;3.25;;
15553;SDS011;7878;44.632;10.942;2023-06-24T13:39:19;3.88;;;2.60;;
15553;SDS011;7878;44.632;10.942;2023-06-24T13:41:48;5.03;;;3.05;;
15553;SDS011;7878;44.632;10.942;2023-06-24T13:44:15;2.95;;;2.58;;
15553;SDS011;7878;44.632;10.942;2023-06-24T13:46:41;2.60;;;2.40;;
15553;SDS011;7878;44.632;10.942;2023-06-24T13:49:07;2.78;;;2.33;;
15553;SDS011;7878;44.632;10.942;2023-06-24T13:51:33;5.00;;;2.67;;
15553;SDS011;7878;44.632;10.942;2023-06-24T13:53:59;3.38;;;3.05;;
15553;SDS011;7878;44.632;10.942;2023-06-24T13:56:25;3.03;;;2.50;;
15553;SDS011;7878;44.632;10.942;2023-06-24T13:58:51;3.58;;;2.70;;
15553;SDS011;7878;44.632;10.942;2023-06-24T14:01:18;4.63;;;2.70;;
15553;SDS011;7878;44.632;10.942;2023-06-24T14:03:44;6.90;;;3.20;;
15553;SDS011;7878;44.632;10.942;2023-06-24T14:06:10;4.63;;;2.53;;
15553;SDS011;7878;44.632;10.942;2023-06-24T14:08:38;3.05;;;2.42;;
15553;SDS011;7878;44.632;10.942;2023-06-24T14:11:04;4.90;;;2.65;;
15553;SDS011;7878;44.632;10.942;2023-06-24T14:13:30;8.43;;;2.53;;
15553;SDS011;7878;44.632;10.942;2023-06-24T14:15:56;4.20;;;2.65;;
15553;SDS011;7878;44.632;10.942;2023-06-24T14:18:22;2.78;;;2.58;;
15553;SDS011;7878;44.632;10.942;2023-06-24T14:20:48;8.10;;;3.20;;
15553;SDS011;7878;44.632;10.942;2023-06-24T14:23:14;2.75;;;2.55;;
15553;SDS011;7878;44.632;10.942;2023-06-24T14:25:40;3.50;;;2.85;;
15553;SDS011;7878;44.632;10.942;2023-06-24T14:28:06;3.13;;;2.50;;
15553;SDS011;7878;44.632;10.942;2023-06-24T14:30:32;2.80;;;2.58;;
15553;SDS011;7878;44.632;10.942;2023-06-24T14:32:59;2.85;;;2.65;;
15553;SDS011;7878;44.632;10.942;2023-06-24T14:35:25;3.35;;;2.53;;
15553;SDS011;7878;44.632;10.942;2023-06-24T14:37:51;2.92;;;2.72;;
15553;SDS011;7878;44.632;10.942;2023-06-24T14:40:17;27.90;;;3.33;;
15553;SDS011;7878;44.632;10.942;2023-06-24T14:42:42;4.25;;;2.72;;
15553;SDS011;7878;44.632;10.942;2023-06-24T14:45:08;2.75;;;2.50;;
15553;SDS011;7878;44.632;10.942;2023-06-24T14:47:34;3.47;;;2.88;;
15553;SDS011;7878;44.632;10.942;2023-06-24T14:50:00;3.00;;;2.67;;
15553;SDS011;7878;44.632;10.942;2023-06-24T14:52:25;4.00;;;2.83;;
15553;SDS011;7878;44.632;10.942;2023-06-24T14:54:51;3.75;;;2.42;;